Time;durP1;ratioP1;P1;durP2;ratioP2;P2;SDS_P1;SDS_P2;PMS_P1;PMS_P2;Temp;Humidity;BMP_temperature;BMP_pressure;BME280_temperature;BME280_humidity;BME280_pressure;Samples;Min_cycle;Max_cycle;Signal;HPM_P1;HPM_P2
2021/01/28 00:01:26;;;;;;;2.13;2.03;;;;;;;;;;5041244;28;20205;-93
2021/01/28 00:03:53;;;;;;;2.70;2.50;;;;;;;;;;5040567;28;20283;-94
2021/01/28 00:06:20;;;;;;;2.92;2.63;;;;;;;;;;5041516;28;20271;-94
2021/01/28 00:08:47;;;;;;;2.70;2.50;;;;;;;;;;5040614;28;20194;-94
2021/01/28 00:11:15;;;;;;;2.50;2.30;;;;;;;;;;5040817;28;20520;-94
2021/01/28 00:13:42;;;;;;;2.50;2.30;;;;;;;;;;5041425;28;20289;-93
2021/01/28 00:16:09;;;;;;;3.00;2.47;;;;;;;;;;5040937;28;20195;-93
2021/01/28 00:18:37;;;;;;;2.25;2.15;;;;;;;;;;5020731;28;20203;-95
2021/01/28 00:21:05;;;;;;;2.20;2.10;;;;;;;;;;5020604;28;20207;-93
2021/01/28 00:23:32;;;;;;;2.70;2.50;;;;;;;;;;5020614;28;20302;-93
2021/01/28 00:26:02;;;;;;;2.70;2.50;;;;;;;;;;5020570;28;20606;-94
2021/01/28 00:28:29;;;;;;;1.98;1.88;;;;;;;;;;5020077;28;20257;-95
2021/01/28 00:30:56;;;;;;;3.05;2.75;;;;;;;;;;5021391;28;20205;-95
2021/01/28 00:33:26;;;;;;;2.53;2.33;;;;;;;;;;5021632;28;20199;-93
2021/01/28 00:36:00;;;;;;;2.42;2.22;;;;;;;;;;5020758;28;20460;-92
2021/01/28 00:38:29;;;;;;;3.05;2.13;;;;;;;;;;5020531;28;20231;-93
2021/01/28 00:41:03;;;;;;;2.60;2.10;;;;;;;;;;5021204;28;20199;-92
2021/01/28 00:43:30;;;;;;;2.78;2.58;;;;;;;;;;5020086;28;20229;-93
2021/01/28 00:45:59;;;;;;;2.55;2.35;;;;;;;;;;5020933;28;20203;-92
2021/01/28 00:48:26;;;;;;;2.55;2.35;;;;;;;;;;5020069;28;20206;-91
2021/01/28 00:51:00;;;;;;;2.75;2.55;;;;;;;;;;5020726;28;20195;-92
2021/01/28 00:53:27;;;;;;;2.25;2.05;;;;;;;;;;5020611;28;20206;-92
2021/01/28 00:55:54;;;;;;;2.00;1.90;;;;;;;;;;5020272;28;20195;-93
2021/01/28 00:58:26;;;;;;;2.17;1.90;;;;;;;;;;5020221;28;20199;-92
2021/01/28 01:00:55;;;;;;;2.25;2.15;;;;;;;;;;5020437;28;20205;-92
2021/01/28 01:03:24;;;;;;;2.75;1.90;;;;;;;;;;5019931;28;20469;-92
2021/01/28 01:05:53;;;;;;;2.40;2.20;;;;;;;;;;5019803;28;20176;-92
2021/01/28 01:08:26;;;;;;;2.40;2.17;;;;;;;;;;5020327;28;20195;-93
2021/01/28 01:10:58;;;;;;;1.85;1.75;;;;;;;;;;5019290;28;20227;-91
2021/01/28 01:13:27;;;;;;;4.50;2.45;;;;;;;;;;5020179;28;20492;-92
2021/01/28 01:15:55;;;;;;;2.17;2.05;;;;;;;;;;5020529;28;20442;-94
2021/01/28 01:18:29;;;;;;;1.88;1.77;;;;;;;;;;5019705;28;20576;-95
2021/01/28 01:20:59;;;;;;;2.47;2.28;;;;;;;;;;5020339;28;20218;-93
2021/01/28 01:23:26;;;;;;;2.13;1.98;;;;;;;;;;5019801;28;20277;-93
2021/01/28 01:25:54;;;;;;;2.42;2.00;;;;;;;;;;5019527;28;20556;-92
2021/01/28 01:28:34;;;;;;;2.88;2.67;;;;;;;;;;5019500;28;20209;-92
2021/01/28 01:31:04;;;;;;;2.53;2.33;;;;;;;;;;5019152;28;20619;-91
2021/01/28 01:33:31;;;;;;;2.97;2.55;;;;;;;;;;5019746;28;20199;-93
2021/01/28 01:35:59;;;;;;;2.45;2.35;;;;;;;;;;5020254;28;20294;-91
2021/01/28 01:38:32;;;;;;;2.20;2.00;;;;;;;;;;5019611;28;20217;-93
2021/01/28 01:41:20;;;;;;;2.42;2.13;;;;;;;;;;5019587;28;20261;-92
2021/01/28 01:43:58;;;;;;;3.58;2.35;;;;;;;;;;5017649;28;20227;-93
2021/01/28 01:46:31;;;;;;;2.47;2.30;;;;;;;;;;5019596;28;20206;-94
2021/01/28 01:49:04;;;;;;;2.90;2.30;;;;;;;;;;5019018;28;20197;-93
2021/01/28 01:51:36;;;;;;;2.78;2.38;;;;;;;;;;5020015;28;20539;-94
2021/01/28 01:54:06;;;;;;;3.42;2.65;;;;;;;;;;5019961;28;20505;-91
2021/01/28 01:56:37;;;;;;;3.30;2.83;;;;;;;;;;5019927;28;20274;-93
2021/01/28 01:59:07;;;;;;;3.63;3.00;;;;;;;;;;5019294;28;20202;-91
2021/01/28 02:01:37;;;;;;;3.75;3.08;;;;;;;;;;5019726;28;20268;-91
2021/01/28 02:04:04;;;;;;;3.38;3.05;;;;;;;;;;5019000;28;20298;-92
2021/01/28 02:06:39;;;;;;;4.00;2.88;;;;;;;;;;5019294;28;20262;-92
2021/01/28 02:09:09;;;;;;;3.88;3.30;;;;;;;;;;5019074;28;20202;-93
2021/01/28 02:11:37;;;;;;;3.03;2.65;;;;;;;;;;5018977;28;20246;-92
2021/01/28 02:14:13;;;;;;;3.80;3.22;;;;;;;;;;5019214;28;20463;-92
2021/01/28 02:16:55;;;;;;;3.08;2.78;;;;;;;;;;5019989;28;20277;-94
2021/01/28 02:19:40;;;;;;;3.90;3.45;;;;;;;;;;5018444;28;20202;-93
2021/01/28 02:22:09;;;;;;;4.72;3.00;;;;;;;;;;5019466;28;20199;-93
2021/01/28 02:24:45;;;;;;;3.33;2.90;;;;;;;;;;5018736;28;20638;-91
2021/01/28 02:27:15;;;;;;;6.85;3.53;;;;;;;;;;5019480;28;20198;-92
2021/01/28 02:29:42;;;;;;;2.85;2.60;;;;;;;;;;5019425;28;20238;-92
2021/01/28 02:32:09;;;;;;;8.13;3.85;;;;;;;;;;5019231;28;20221;-93
2021/01/28 02:34:37;;;;;;;3.63;3.33;;;;;;;;;;5019218;28;20207;-92
2021/01/28 02:37:13;;;;;;;3.97;2.97;;;;;;;;;;5018781;28;20179;-93
2021/01/28 02:39:41;;;;;;;7.93;3.70;;;;;;;;;;5018607;28;20555;-92
2021/01/28 02:42:18;;;;;;;3.83;3.53;;;;;;;;;;5018778;28;20233;-93
2021/01/28 02:44:46;;;;;;;4.00;3.40;;;;;;;;;;5018982;28;20223;-93
2021/01/28 02:47:14;;;;;;;4.80;3.38;;;;;;;;;;5019058;28;20192;-92
2021/01/28 02:49:44;;;;;;;4.40;3.05;;;;;;;;;;5019627;28;20256;-93
2021/01/28 02:52:11;;;;;;;3.60;3.20;;;;;;;;;;5020948;28;20209;-93
2021/01/28 02:54:42;;;;;;;4.38;3.17;;;;;;;;;;5023273;28;20264;-93
2021/01/28 02:57:09;;;;;;;3.58;3.08;;;;;;;;;;5022971;28;20256;-92
2021/01/28 02:59:37;;;;;;;4.55;3.40;;;;;;;;;;5022740;28;20608;-93
2021/01/28 03:02:08;;;;;;;4.07;3.35;;;;;;;;;;5022631;28;20513;-93
2021/01/28 03:04:35;;;;;;;4.55;4.15;;;;;;;;;;5022306;28;20223;-93
2021/01/28 03:07:02;;;;;;;3.35;3.05;;;;;;;;;;5021881;28;20183;-94
2021/01/28 03:09:29;;;;;;;4.88;3.63;;;;;;;;;;5022470;28;20458;-92
2021/01/28 03:11:56;;;;;;;4.53;3.58;;;;;;;;;;5021907;28;20245;-93
2021/01/28 03:14:24;;;;;;;6.25;4.38;;;;;;;;;;5022838;28;20194;-93
2021/01/28 03:16:52;;;;;;;4.85;4.03;;;;;;;;;;5022275;28;20176;-92
2021/01/28 03:19:21;;;;;;;4.03;3.63;;;;;;;;;;5022767;28;20596;-94
2021/01/28 03:21:48;;;;;;;3.75;3.30;;;;;;;;;;5034851;28;20266;-93
2021/01/28 03:24:15;;;;;;;6.13;3.88;;;;;;;;;;5039988;28;20219;-92
2021/01/28 03:26:43;;;;;;;4.18;3.50;;;;;;;;;;5039849;28;20275;-92
2021/01/28 03:29:12;;;;;;;4.93;3.60;;;;;;;;;;5034880;28;20293;-91
2021/01/28 03:31:39;;;;;;;3.80;3.50;;;;;;;;;;5024080;28;20207;-93
2021/01/28 03:34:08;;;;;;;4.70;4.30;;;;;;;;;;5022694;28;20225;-92
2021/01/28 03:36:36;;;;;;;5.68;4.15;;;;;;;;;;5023033;28;20203;-93
2021/01/28 03:39:05;;;;;;;4.80;3.80;;;;;;;;;;5022743;28;20209;-93
2021/01/28 03:41:32;;;;;;;4.32;3.65;;;;;;;;;;5032250;28;20212;-93
2021/01/28 03:43:59;;;;;;;4.05;3.70;;;;;;;;;;5039532;28;20237;-94
2021/01/28 03:46:26;;;;;;;4.80;4.25;;;;;;;;;;5036334;28;20203;-92
2021/01/28 03:48:53;;;;;;;4.60;4.15;;;;;;;;;;5022501;28;20272;-93
2021/01/28 03:51:21;;;;;;;3.72;3.30;;;;;;;;;;5022776;28;20233;-93
2021/01/28 03:53:48;;;;;;;5.13;3.92;;;;;;;;;;5022017;28;20280;-93
2021/01/28 03:56:15;;;;;;;4.75;3.67;;;;;;;;;;5022073;28;20203;-93
2021/01/28 03:58:42;;;;;;;5.03;4.30;;;;;;;;;;5021829;28;20524;-93
2021/01/28 04:01:10;;;;;;;3.50;3.15;;;;;;;;;;5021892;28;20215;-93
2021/01/28 04:03:37;;;;;;;3.80;3.40;;;;;;;;;;5020365;28;20310;-93
2021/01/28 04:06:04;;;;;;;6.63;4.22;;;;;;;;;;5021731;28;20203;-91
2021/01/28 04:08:32;;;;;;;4.82;4.32;;;;;;;;;;5021456;28;20184;-91
2021/01/28 04:10:59;;;;;;;6.63;3.92;;;;;;;;;;5020838;28;20616;-91
2021/01/28 04:13:26;;;;;;;4.63;3.97;;;;;;;;;;5021767;28;20207;-92
2021/01/28 04:15:54;;;;;;;4.57;3.60;;;;;;;;;;5021075;28;20222;-92
2021/01/28 04:18:21;;;;;;;4.50;4.03;;;;;;;;;;5021535;28;20229;-91
2021/01/28 04:20:50;;;;;;;5.30;4.65;;;;;;;;;;5021301;28;20488;-92
2021/01/28 04:23:18;;;;;;;5.65;4.30;;;;;;;;;;5021960;28;20203;-91
2021/01/28 04:25:47;;;;;;;6.57;4.43;;;;;;;;;;5021086;28;20192;-92
2021/01/28 04:28:14;;;;;;;5.60;4.40;;;;;;;;;;5021850;28;20429;-92
2021/01/28 04:30:41;;;;;;;8.02;5.63;;;;;;;;;;5021260;28;20202;-93
2021/01/28 04:33:09;;;;;;;5.82;4.60;;;;;;;;;;5021743;28;20270;-91
2021/01/28 04:35:36;;;;;;;5.22;4.32;;;;;;;;;;5020920;28;20191;-92
2021/01/28 04:38:04;;;;;;;5.05;4.00;;;;;;;;;;5020791;28;20210;-92
2021/01/28 04:40:37;;;;;;;4.72;3.60;;;;;;;;;;5020357;28;20180;-91
2021/01/28 04:43:23;;;;;;;7.10;4.78;;;;;;;;;;5020875;28;20230;-92
2021/01/28 04:45:51;;;;;;;4.90;3.85;;;;;;;;;;5020895;28;20244;-92
2021/01/28 04:48:19;;;;;;;5.00;3.85;;;;;;;;;;5020614;28;20199;-91
2021/01/28 04:50:46;;;;;;;6.95;4.25;;;;;;;;;;5021439;28;20187;-91
2021/01/28 04:53:18;;;;;;;4.68;4.28;;;;;;;;;;5021607;28;20257;-90
2021/01/28 04:55:50;;;;;;;3.88;3.55;;;;;;;;;;5020731;28;20187;-90
2021/01/28 04:58:19;;;;;;;4.32;3.92;;;;;;;;;;5020744;28;20603;-91
2021/01/28 05:00:46;;;;;;;7.57;5.80;;;;;;;;;;5020054;28;20275;-91
2021/01/28 05:03:22;;;;;;;8.45;7.57;;;;;;;;;;5020772;28;20203;-91
2021/01/28 05:05:52;;;;;;;9.43;8.13;;;;;;;;;;5020442;28;20218;-90
2021/01/28 05:08:20;;;;;;;7.15;5.90;;;;;;;;;;5020448;28;20195;-90
2021/01/28 05:10:49;;;;;;;7.38;5.63;;;;;;;;;;5020143;28;20473;-90
2021/01/28 05:13:29;;;;;;;4.38;3.72;;;;;;;;;;5019965;28;20215;-92
2021/01/28 05:15:59;;;;;;;4.25;3.65;;;;;;;;;;5019995;28;20337;-91
2021/01/28 05:18:33;;;;;;;5.80;4.50;;;;;;;;;;5020681;28;20237;-91
2021/01/28 05:21:08;;;;;;;4.68;4.05;;;;;;;;;;5019493;28;20179;-91
2021/01/28 05:23:38;;;;;;;5.35;3.42;;;;;;;;;;5020605;28;20203;-92
2021/01/28 05:26:29;;;;;;;3.63;3.20;;;;;;;;;;5020547;28;20226;-92
2021/01/28 05:29:01;;;;;;;3.50;3.10;;;;;;;;;;5020467;28;20213;-94
2021/01/28 05:31:31;;;;;;;3.85;3.17;;;;;;;;;;5020214;28;20199;-93
2021/01/28 05:34:10;;;;;;;3.53;3.22;;;;;;;;;;5020427;28;20282;-93
2021/01/28 05:36:42;;;;;;;3.80;3.03;;;;;;;;;;5020422;28;20211;-92
2021/01/28 05:39:21;;;;;;;3.97;3.58;;;;;;;;;;5019618;28;20205;-91
2021/01/28 05:41:52;;;;;;;5.97;4.40;;;;;;;;;;5019524;28;20642;-90
2021/01/28 05:44:24;;;;;;;8.25;5.50;;;;;;;;;;5020212;28;20487;-91
2021/01/28 05:47:03;;;;;;;9.95;8.90;;;;;;;;;;5019313;28;20187;-91
2021/01/28 05:49:38;;;;;;;13.23;8.27;;;;;;;;;;5019750;28;20187;-90
2021/01/28 05:52:20;;;;;;;10.70;8.38;;;;;;;;;;5019107;28;20274;-90
2021/01/28 05:55:06;;;;;;;10.63;8.23;;;;;;;;;;5019102;28;20443;-91
2021/01/28 05:57:41;;;;;;;13.23;9.85;;;;;;;;;;5020231;28;20210;-90
2021/01/28 06:00:20;;;;;;;13.48;9.82;;;;;;;;;;5020048;28;20457;-91
2021/01/28 06:03:15;;;;;;;10.25;9.18;;;;;;;;;;5018989;28;20182;-93
2021/01/28 06:06:00;;;;;;;10.63;8.57;;;;;;;;;;5019779;28;20227;-93
2021/01/28 06:08:46;;;;;;;12.82;8.55;;;;;;;;;;5019977;28;20485;-92
2021/01/28 06:11:29;;;;;;;10.60;8.93;;;;;;;;;;5018921;28;20230;-91
2021/01/28 06:14:28;;;;;;;13.38;9.10;;;;;;;;;;5018898;28;20537;-90
2021/01/28 06:17:09;;;;;;;12.70;7.43;;;;;;;;;;5019183;28;20540;-91
2021/01/28 06:19:56;;;;;;;11.98;9.60;;;;;;;;;;5018930;28;20197;-90
2021/01/28 06:22:35;;;;;;;10.50;7.80;;;;;;;;;;5019167;28;20190;-90
2021/01/28 06:25:25;;;;;;;10.73;8.30;;;;;;;;;;5019522;28;20495;-91
2021/01/28 06:28:11;;;;;;;10.23;8.20;;;;;;;;;;5022472;28;20217;-90
2021/01/28 06:30:47;;;;;;;11.23;8.13;;;;;;;;;;5023416;28;20205;-92
2021/01/28 06:33:46;;;;;;;12.35;7.82;;;;;;;;;;5024154;28;20202;-93
2021/01/28 06:36:59;;;;;;;12.75;8.90;;;;;;;;;;5023749;28;20199;-92
2021/01/28 06:39:28;;;;;;;10.00;8.05;;;;;;;;;;4963330;29;20288;-92
2021/01/28 06:42:17;;;;;;;11.18;8.55;;;;;;;;;;4963303;28;20324;-93
2021/01/28 06:44:49;;;;;;;9.50;8.52;;;;;;;;;;4963747;28;20315;-92
2021/01/28 06:47:20;;;;;;;9.88;8.30;;;;;;;;;;4963887;28;20204;-92
2021/01/28 06:49:55;;;;;;;12.95;8.18;;;;;;;;;;4963511;28;20199;-92
2021/01/28 06:52:46;;;;;;;11.05;9.07;;;;;;;;;;4974119;28;20271;-92
2021/01/28 06:55:27;;;;;;;11.05;8.90;;;;;;;;;;4982742;28;20533;-93
2021/01/28 06:58:10;;;;;;;11.00;9.48;;;;;;;;;;4983186;28;20273;-91
2021/01/28 07:00:41;;;;;;;9.75;8.75;;;;;;;;;;4982955;28;20193;-93
2021/01/28 07:03:19;;;;;;;10.73;9.27;;;;;;;;;;4983088;28;20208;-91
2021/01/28 07:05:57;;;;;;;9.63;8.20;;;;;;;;;;4981872;28;20318;-90
2021/01/28 07:08:59;;;;;;;12.13;8.63;;;;;;;;;;4982005;28;20539;-91
2021/01/28 07:11:36;;;;;;;10.55;7.70;;;;;;;;;;5037491;28;20607;-90
2021/01/28 07:14:04;;;;;;;8.73;7.82;;;;;;;;;;5042314;28;20182;-91
2021/01/28 07:16:36;;;;;;;12.68;8.93;;;;;;;;;;5041869;28;20222;-90
2021/01/28 07:19:10;;;;;;;9.82;8.32;;;;;;;;;;5042508;28;20430;-89
2021/01/28 07:21:40;;;;;;;9.20;7.88;;;;;;;;;;5041527;28;20197;-90
2021/01/28 07:24:11;;;;;;;7.40;6.65;;;;;;;;;;5042351;28;20198;-91
2021/01/28 07:26:49;;;;;;;7.28;6.30;;;;;;;;;;5041188;28;20301;-91
2021/01/28 07:29:55;;;;;;;9.43;8.40;;;;;;;;;;5042353;28;20190;-90
2021/01/28 07:32:52;;;;;;;8.23;7.22;;;;;;;;;;5026963;28;20198;-90
2021/01/28 07:35:43;;;;;;;7.22;6.30;;;;;;;;;;5041686;28;20197;-90
2021/01/28 07:38:55;;;;;;;8.07;7.28;;;;;;;;;;5041190;28;20261;-90
2021/01/28 07:41:54;;;;;;;7.50;6.10;;;;;;;;;;5041052;28;20679;-90
2021/01/28 07:44:53;;;;;;;6.35;5.55;;;;;;;;;;5039863;28;20234;-92
2021/01/28 07:47:59;;;;;;;6.30;5.13;;;;;;;;;;5041485;28;20551;-91
2021/01/28 07:50:41;;;;;;;6.13;5.00;;;;;;;;;;5041179;28;20575;-93
2021/01/28 07:53:38;;;;;;;5.53;4.63;;;;;;;;;;5042497;28;20210;-91
2021/01/28 07:56:51;;;;;;;5.15;4.65;;;;;;;;;;5042280;28;20555;-91
2021/01/28 07:59:32;;;;;;;4.50;3.97;;;;;;;;;;4962266;28;20255;-91
2021/01/28 08:02:16;;;;;;;3.30;3.00;;;;;;;;;;4961871;29;20285;-91
2021/01/28 08:04:46;;;;;;;3.75;3.42;;;;;;;;;;4961760;29;20206;-91
2021/01/28 08:07:20;;;;;;;3.47;3.17;;;;;;;;;;4961392;29;20221;-92
2021/01/28 08:09:50;;;;;;;4.68;3.50;;;;;;;;;;4961485;29;20588;-93
2021/01/28 08:12:25;;;;;;;2.85;2.58;;;;;;;;;;4961097;28;20241;-91
2021/01/28 08:14:53;;;;;;;3.20;2.90;;;;;;;;;;4962141;29;20228;-92
2021/01/28 08:17:28;;;;;;;3.33;2.78;;;;;;;;;;4962071;29;20299;-92
2021/01/28 08:20:20;;;;;;;2.97;2.50;;;;;;;;;;4961810;29;20201;-91
2021/01/28 08:22:53;;;;;;;3.50;3.20;;;;;;;;;;4961328;29;20216;-90
2021/01/28 08:25:21;;;;;;;3.00;2.67;;;;;;;;;;4961763;29;20296;-92
2021/01/28 08:27:49;;;;;;;2.50;2.30;;;;;;;;;;4961289;29;20216;-92
2021/01/28 08:30:21;;;;;;;2.78;2.47;;;;;;;;;;4961872;29;20205;-91
2021/01/28 08:32:55;;;;;;;3.38;3.00;;;;;;;;;;4961173;29;20216;-92
2021/01/28 08:35:27;;;;;;;3.38;3.08;;;;;;;;;;4984252;28;20325;-92
2021/01/28 08:38:12;;;;;;;4.82;4.15;;;;;;;;;;5040886;28;20218;-92
2021/01/28 08:40:40;;;;;;;5.38;4.18;;;;;;;;;;5040206;28;20179;-90
2021/01/28 08:43:13;;;;;;;7.32;5.20;;;;;;;;;;5039934;28;20305;-92
2021/01/28 08:45:41;;;;;;;5.55;4.32;;;;;;;;;;5040211;28;20210;-92
2021/01/28 08:48:14;;;;;;;6.57;5.28;;;;;;;;;;5040723;28;20198;-92
2021/01/28 08:50:42;;;;;;;7.03;5.40;;;;;;;;;;5039367;28;20210;-93
2021/01/28 08:53:17;;;;;;;7.05;5.18;;;;;;;;;;5046604;28;20226;-91
2021/01/28 08:55:47;;;;;;;7.13;5.43;;;;;;;;;;5062818;28;20488;-93
2021/01/28 08:58:20;;;;;;;7.82;6.35;;;;;;;;;;5058808;28;20203;-93
2021/01/28 09:00:50;;;;;;;5.93;5.30;;;;;;;;;;5056332;28;20218;-94
2021/01/28 09:03:23;;;;;;;7.53;5.57;;;;;;;;;;5042925;28;20462;-94
2021/01/28 09:05:52;;;;;;;6.63;5.28;;;;;;;;;;5041021;28;20222;-93
2021/01/28 09:08:33;;;;;;;4.97;4.47;;;;;;;;;;5041212;28;20198;-94
2021/01/28 09:11:10;;;;;;;6.70;5.55;;;;;;;;;;5041448;28;20240;-93
2021/01/28 09:13:38;;;;;;;8.43;6.38;;;;;;;;;;5050689;28;20273;-93
2021/01/28 09:16:12;;;;;;;8.88;7.50;;;;;;;;;;5055894;28;20198;-91
2021/01/28 09:18:42;;;;;;;6.82;6.07;;;;;;;;;;5054365;28;20201;-95
2021/01/28 09:21:12;;;;;;;8.70;6.72;;;;;;;;;;5041741;28;20345;-91
2021/01/28 09:23:56;;;;;;;8.57;5.72;;;;;;;;;;5039724;28;20567;-93
2021/01/28 09:26:27;;;;;;;7.53;6.47;;;;;;;;;;5056433;28;20495;-93
2021/01/28 09:28:57;;;;;;;7.40;6.18;;;;;;;;;;5060281;28;20281;-91
2021/01/28 09:31:29;;;;;;;6.00;5.15;;;;;;;;;;5060459;28;20202;-93
2021/01/28 09:33:57;;;;;;;6.63;4.55;;;;;;;;;;5060422;28;20492;-93
2021/01/28 09:36:27;;;;;;;6.10;4.70;;;;;;;;;;5056002;28;20204;-92
2021/01/28 09:39:21;;;;;;;5.00;4.43;;;;;;;;;;5039802;28;20216;-93
2021/01/28 09:41:51;;;;;;;8.43;4.55;;;;;;;;;;5039644;28;20574;-93
2021/01/28 09:44:39;;;;;;;7.45;4.72;;;;;;;;;;5039335;28;20285;-91
2021/01/28 09:47:24;;;;;;;4.97;4.47;;;;;;;;;;5038586;28;20222;-92
2021/01/28 09:49:54;;;;;;;4.43;3.60;;;;;;;;;;5046369;28;20229;-90
2021/01/28 09:52:26;;;;;;;4.85;4.35;;;;;;;;;;5045020;28;20205;-92
2021/01/28 09:54:56;;;;;;;4.60;4.20;;;;;;;;;;5039085;28;20218;-91
2021/01/28 09:57:24;;;;;;;6.28;5.45;;;;;;;;;;5039832;28;20233;-92
2021/01/28 09:59:52;;;;;;;6.43;4.90;;;;;;;;;;5038954;28;20204;-94
2021/01/28 10:02:22;;;;;;;5.22;4.72;;;;;;;;;;5039746;28;20202;-94
2021/01/28 10:04:49;;;;;;;6.25;5.65;;;;;;;;;;5040571;28;20529;-95
2021/01/28 10:07:17;;;;;;;3.50;3.20;;;;;;;;;;5039543;28;20238;-92
2021/01/28 10:09:47;;;;;;;4.53;3.97;;;;;;;;;;5032334;28;20542;-93
2021/01/28 10:12:27;;;;;;;4.30;3.90;;;;;;;;;;5038102;28;20230;-91
2021/01/28 10:14:56;;;;;;;4.20;3.58;;;;;;;;;;5038606;28;20217;-94
2021/01/28 10:17:23;;;;;;;4.30;3.90;;;;;;;;;;5039358;28;20194;-92
2021/01/28 10:19:52;;;;;;;5.30;4.47;;;;;;;;;;5058750;28;20210;-92
2021/01/28 10:22:22;;;;;;;4.88;4.38;;;;;;;;;;5032305;28;20234;-92
2021/01/28 10:24:49;;;;;;;4.75;4.25;;;;;;;;;;5039157;28;20540;-92
2021/01/28 10:27:22;;;;;;;5.13;4.07;;;;;;;;;;5039082;28;20214;-93
2021/01/28 10:29:49;;;;;;;6.50;5.13;;;;;;;;;;5149327;22;20228;-91
2021/01/28 10:32:18;;;;;;;3.95;3.65;;;;;;;;;;5035505;28;20206;-91
2021/01/28 10:34:45;;;;;;;4.88;4.18;;;;;;;;;;5048602;28;20214;-92
2021/01/28 10:37:13;;;;;;;3.95;3.55;;;;;;;;;;5041393;28;20209;-91
2021/01/28 10:39:40;;;;;;;3.58;3.28;;;;;;;;;;5041192;28;20204;-92
2021/01/28 10:42:07;;;;;;;3.97;3.55;;;;;;;;;;5039057;28;20198;-91
2021/01/28 10:44:34;;;;;;;4.20;3.80;;;;;;;;;;5038729;28;20225;-92
2021/01/28 10:47:01;;;;;;;3.70;3.40;;;;;;;;;;5038553;28;20248;-91
2021/01/28 10:49:30;;;;;;;5.30;4.78;;;;;;;;;;5057007;28;20495;-91
2021/01/28 10:51:57;;;;;;;4.00;3.55;;;;;;;;;;5058637;28;20209;-91
2021/01/28 10:54:24;;;;;;;4.35;3.95;;;;;;;;;;5058037;28;20194;-90
2021/01/28 10:56:52;;;;;;;5.18;4.68;;;;;;;;;;5049852;28;20232;-91
2021/01/28 10:59:29;;;;;;;4.05;3.17;;;;;;;;;;5058427;28;20208;-93
2021/01/28 11:05:52;;;;;;;5.25;4.63;;;;;;;;;;4773073;30;20215;-90
2021/01/28 11:08:20;;;;;;;4.70;4.30;;;;;;;;;;4791802;30;20212;-90
2021/01/28 11:10:48;;;;;;;6.78;5.13;;;;;;;;;;4792223;30;20286;-90
2021/01/28 11:13:15;;;;;;;4.80;4.18;;;;;;;;;;4792970;29;20248;-91
2021/01/28 11:15:43;;;;;;;5.45;4.65;;;;;;;;;;4795095;30;20219;-91
2021/01/28 11:18:11;;;;;;;4.40;4.00;;;;;;;;;;4808474;29;20214;-91
2021/01/28 11:20:39;;;;;;;4.70;4.18;;;;;;;;;;4813605;29;20210;-92
2021/01/28 11:23:08;;;;;;;5.97;4.15;;;;;;;;;;4813053;29;20456;-91
2021/01/28 11:25:37;;;;;;;6.15;5.00;;;;;;;;;;4803524;29;20302;-90
2021/01/28 11:28:05;;;;;;;7.28;4.93;;;;;;;;;;4796079;29;20288;-93
2021/01/28 11:30:34;;;;;;;5.63;4.32;;;;;;;;;;5020111;28;20241;-92
2021/01/28 11:33:04;;;;;;;7.93;5.72;;;;;;;;;;5062159;28;20276;-91
2021/01/28 11:35:35;;;;;;;5.38;4.50;;;;;;;;;;5062138;28;20214;-93
2021/01/28 11:38:04;;;;;;;5.72;5.22;;;;;;;;;;5047135;28;20255;-94
2021/01/28 11:40:37;;;;;;;5.45;4.07;;;;;;;;;;5066144;28;20213;-94
2021/01/28 11:43:10;;;;;;;4.93;4.53;;;;;;;;;;5051266;28;20207;-91
2021/01/28 11:45:43;;;;;;;4.10;3.70;;;;;;;;;;4985074;28;20334;-92
2021/01/28 11:48:13;;;;;;;4.45;4.05;;;;;;;;;;5002175;28;20227;-94
2021/01/28 11:53:23;;;;;;;5.28;4.78;;;;;;;;;;4975862;28;20201;-93
2021/01/28 11:56:07;;;;;;;4.90;4.43;;;;;;;;;;4982934;28;20243;-92
2021/01/28 11:59:18;;;;;;;4.85;4.40;;;;;;;;;;4981993;28;20592;-95
2021/01/28 12:02:02;;;;;;;6.28;4.53;;;;;;;;;;5763231;22;21319;-95
2021/01/28 12:22:55;;;;;;;5.22;4.20;;;;;;;;;;5000654;26;20247;-96
2021/01/28 12:25:23;;;;;;;6.05;5.15;;;;;;;;;;5435690;22;953330;-94
2021/01/28 12:30:36;;;;;;;4.53;4.03;;;;;;;;;;4974492;28;20228;-92
2021/01/28 12:33:03;;;;;;;5.05;4.13;;;;;;;;;;4962722;29;20197;-92
2021/01/28 12:35:30;;;;;;;5.05;4.50;;;;;;;;;;4962404;28;20201;-93
2021/01/28 12:37:59;;;;;;;4.47;4.07;;;;;;;;;;4962088;28;20205;-93
2021/01/28 12:40:27;;;;;;;4.75;4.30;;;;;;;;;;4967116;29;20204;-93
2021/01/28 12:42:54;;;;;;;4.28;3.90;;;;;;;;;;4962769;29;20461;-94
2021/01/28 12:45:22;;;;;;;4.55;4.13;;;;;;;;;;4962022;29;20235;-94
2021/01/28 12:47:49;;;;;;;3.72;3.38;;;;;;;;;;4962723;29;20308;-96
2021/01/28 12:50:17;;;;;;;5.43;4.03;;;;;;;;;;4961962;29;20205;-94
2021/01/28 12:52:45;;;;;;;3.80;3.50;;;;;;;;;;4960859;28;20216;-93
2021/01/28 12:55:15;;;;;;;3.80;3.35;;;;;;;;;;4960339;29;20236;-93
2021/01/28 12:57:42;;;;;;;3.38;3.05;;;;;;;;;;4962908;28;20292;-94
2021/01/28 13:00:12;;;;;;;3.25;2.95;;;;;;;;;;4962517;28;20243;-93
2021/01/28 13:02:39;;;;;;;2.75;2.47;;;;;;;;;;4962424;29;20287;-90
2021/01/28 13:05:08;;;;;;;3.42;3.03;;;;;;;;;;4961952;29;20276;-90
2021/01/28 13:07:35;;;;;;;3.75;3.42;;;;;;;;;;4961844;28;20308;-91
2021/01/28 13:10:03;;;;;;;3.15;2.85;;;;;;;;;;4960650;29;20201;-91
2021/01/28 13:12:31;;;;;;;3.10;2.80;;;;;;;;;;4962189;29;20229;-91
2021/01/28 13:15:20;;;;;;;2.72;2.53;;;;;;;;;;4961896;28;20583;-94
2021/01/28 13:17:48;;;;;;;3.10;2.80;;;;;;;;;;4962223;29;20197;-94
2021/01/28 13:20:18;;;;;;;3.70;3.30;;;;;;;;;;4961595;29;20590;-96
2021/01/28 13:22:45;;;;;;;4.40;4.00;;;;;;;;;;4961601;29;20475;-93
2021/01/28 13:25:17;;;;;;;5.32;4.25;;;;;;;;;;4962748;28;20260;-94
2021/01/28 13:27:51;;;;;;;3.67;3.38;;;;;;;;;;4953492;28;20260;-95
2021/01/28 13:30:20;;;;;;;3.60;3.30;;;;;;;;;;4954595;29;20233;-94
2021/01/28 13:32:48;;;;;;;3.58;3.15;;;;;;;;;;4956440;28;20232;-95
2021/01/28 13:35:41;;;;;;;3.58;3.28;;;;;;;;;;4961133;28;20221;-93
2021/01/28 13:38:10;;;;;;;4.35;3.95;;;;;;;;;;4934243;29;20214;-92
2021/01/28 13:44:24;;;;;;;2.85;2.65;;;;;;;;;;4950717;29;20216;-94
2021/01/28 13:51:02;;;;;;;2.22;2.08;;;;;;;;;;4891424;29;20182;-95
2021/01/28 13:53:29;;;;;;;2.40;2.20;;;;;;;;;;4874784;29;20594;-94
2021/01/28 13:56:00;;;;;;;2.55;2.35;;;;;;;;;;4887494;29;20203;-95
2021/01/28 13:58:33;;;;;;;1.92;1.80;;;;;;;;;;4889333;29;20204;-95
2021/01/28 14:01:09;;;;;;;2.00;1.80;;;;;;;;;;4887091;29;20228;-94
2021/01/28 14:03:39;;;;;;;2.60;2.40;;;;;;;;;;4887263;29;20214;-94
2021/01/28 14:06:09;;;;;;;2.40;2.20;;;;;;;;;;4869046;29;20203;-93
2021/01/28 14:08:36;;;;;;;4.00;2.80;;;;;;;;;;4883894;29;20306;-91
2021/01/28 14:11:04;;;;;;;2.70;2.50;;;;;;;;;;4883949;29;20275;-91
2021/01/28 14:13:35;;;;;;;2.63;2.42;;;;;;;;;;4883889;29;20215;-92
2021/01/28 14:16:25;;;;;;;3.63;2.90;;;;;;;;;;4852620;29;20223;-93
2021/01/28 14:19:18;;;;;;;3.88;3.15;;;;;;;;;;4822826;29;20483;-94
2021/01/28 14:21:54;;;;;;;3.20;2.92;;;;;;;;;;4900058;29;20210;-95
2021/01/28 14:24:21;;;;;;;3.55;2.42;;;;;;;;;;4922380;29;20483;-95
2021/01/28 14:26:49;;;;;;;2.20;2.00;;;;;;;;;;4921394;29;20241;-95
2021/01/28 14:29:17;;;;;;;3.67;1.85;;;;;;;;;;4921104;29;20379;-93
2021/01/28 14:32:22;;;;;;;3.67;2.20;;;;;;;;;;4920515;29;20269;-95
2021/01/28 14:34:57;;;;;;;1.75;1.65;;;;;;;;;;4891940;29;20218;-92
2021/01/28 14:37:24;;;;;;;1.60;1.50;;;;;;;;;;4926388;29;20205;-90
2021/01/28 14:43:19;;;;;;;1.70;1.60;;;;;;;;;;4941199;28;20237;-93
2021/01/28 14:45:48;;;;;;;1.75;1.65;;;;;;;;;;4940893;28;20201;-95
2021/01/28 14:48:16;;;;;;;1.55;1.48;;;;;;;;;;4941135;28;20218;-92
2021/01/28 14:50:43;;;;;;;1.83;1.73;;;;;;;;;;4946117;29;20225;-93
2021/01/28 14:53:10;;;;;;;1.63;1.52;;;;;;;;;;4962326;28;20235;-93
2021/01/28 14:55:37;;;;;;;1.50;1.40;;;;;;;;;;4963628;29;20205;-92
2021/01/28 14:58:04;;;;;;;1.33;1.20;;;;;;;;;;4963977;28;20231;-93
2021/01/28 15:00:31;;;;;;;1.67;1.58;;;;;;;;;;4963750;28;20252;-94
2021/01/28 15:02:59;;;;;;;1.50;1.40;;;;;;;;;;4963160;29;20280;-93
2021/01/28 15:05:27;;;;;;;1.65;1.45;;;;;;;;;;4963944;28;20197;-93
2021/01/28 15:07:54;;;;;;;1.00;1.00;;;;;;;;;;4963521;29;20296;-91
2021/01/28 15:10:27;;;;;;;1.10;1.10;;;;;;;;;;4963754;28;20558;-92
2021/01/28 15:12:56;;;;;;;1.73;1.63;;;;;;;;;;4963085;29;20216;-94
2021/01/28 15:15:23;;;;;;;1.50;1.40;;;;;;;;;;4963895;29;20450;-94
2021/01/28 15:17:53;;;;;;;1.63;1.50;;;;;;;;;;4965923;29;20201;-92
2021/01/28 15:20:20;;;;;;;1.00;1.00;;;;;;;;;;4973964;28;20208;-91
2021/01/28 15:22:48;;;;;;;1.30;1.10;;;;;;;;;;4974773;29;20196;-91
2021/01/28 15:25:16;;;;;;;1.35;1.25;;;;;;;;;;4973263;28;20327;-91
2021/01/28 15:27:43;;;;;;;1.27;1.20;;;;;;;;;;4963664;28;20574;-91
2021/01/28 15:30:12;;;;;;;4.30;2.92;;;;;;;;;;4964262;28;20240;-91
2021/01/28 15:32:39;;;;;;;2.33;1.88;;;;;;;;;;4964202;28;20304;-91
2021/01/28 15:35:08;;;;;;;2.60;1.90;;;;;;;;;;4973147;28;20411;-92
2021/01/28 15:37:35;;;;;;;2.38;1.50;;;;;;;;;;4985962;28;20196;-91
2021/01/28 15:40:05;;;;;;;1.65;1.55;;;;;;;;;;4988462;28;20462;-92
2021/01/28 15:42:32;;;;;;;1.40;1.30;;;;;;;;;;4994109;28;20429;-92
2021/01/28 15:45:00;;;;;;;2.28;2.10;;;;;;;;;;4983987;28;20295;-93
2021/01/28 15:47:27;;;;;;;4.22;2.83;;;;;;;;;;4983648;28;20239;-93
2021/01/28 15:49:54;;;;;;;2.83;2.58;;;;;;;;;;4982603;28;20261;-92
2021/01/28 15:52:21;;;;;;;3.38;3.08;;;;;;;;;;4969176;28;20241;-93
2021/01/28 15:54:48;;;;;;;3.05;2.72;;;;;;;;;;4964136;29;20201;-94